Albuquerque, NM (87187)

12:00 PM MDT on August 29, 2015 (GMT -0600)
Vista Casitas | | Change Station
CLOSE
Current Station
Personal Weather Station
Location: Albuquerque, NM
Elevation: 5466 ft
Nearby Weather Stations

Elev 5466 ft 35.19 °N, 106.74 °W | Updated 26 seconds ago

Partly Cloudy
Partly Cloudy
84.9 °F
Feels Like 83 °F
N
1.0
Wind Variable Wind from WNW
Gusts 1.0 mph

Today
High -- | Low -- °F
--% Chance of Precip.
Yesterday
High -- | Low -- °F
Precip. -- in
6:37 AM 7:38 PM
Full, 100% visible
Pressure 30.04 in
Visibility 10.0 miles
Clouds Few 8000 ft
Few 15000 ft
Heat Index 83 °F
Dew Point 51 °F
Humidity 31%
Rainfall 0.00 in
Snow Depth Not available.
UV 10 out of 12
Pollen 6.70 out of 12
Air Quality Not available.
Flu Activity Not available.
METAR KABQ 291752Z 29004KT 10SM FEW080 FEW150 28/10 A3030 RMK AO2 SLP171 TCU DSNT N T02780100 10283 20189 58004
Pressure 30.04 in
Visibility 10.0 miles
Clouds Few 8000 ft
Few 15000 ft
Heat Index 83 °F
Dew Point 51 °F
Humidity 31%
Rainfall 0.00 in
Snow Depth Not available.
UV 10 out of 12
Pollen 6.70 out of 12
Air Quality Not available.
Flu Activity Not available.
METAR KABQ 291752Z 29004KT 10SM FEW080 FEW150 28/10 A3030 RMK AO2 SLP171 TCU DSNT N T02780100 10283 20189 58004

10-Day Weather Forecast

×

Almanac

Astronomy

Aug. 29, 2015 Rise Set
Actual Time
Civil Twilight
Nautical Twilight
Astronomical Twilight
Moon
Length of Visible Light
Length of Day
Tomorrow will be .
, % of the Moon is Illuminated

Today's Extremes

State Highs State Lows

Community

WunderPhotos

Upload Photos

1,850,750 photos uploaded!

WunderBlogs® & News

Nearby

Air Quality

  Air Quality AQ Index Pollutant
Not available.

Snow Depth

Station Depth Elevation

Earthquake Activity

City Distance Mag. Time & Date
Minimum magnitude displayed is 2.5.

Coastal Water Temperatures

Place Temperature

Stations

Nearby Weather Stations

Station Location Temp. Windchill Dew Point Humidity Wind Precip. Elev Updated Type